Cudworth, United Kingdom
Current Conditions -  °F | °C
As of 6:20 AM on Saturday 29 Nov 2014 (Local Time) from EGCN Reporting Station
Light Rain Light Rain  
Wind Chill: 50°   Ceiling: 800
Heat Index: 50°   Visibility: 2.9mi
Dew Point: 48°   Wind: 5mph
Humidity: 94%   Direction: 90°E
Pressure: 29.88"   Gusts: NA
Location:  53.57°N, 1.42°W
Report Text: EGCN 290620Z 09004KT 040V150 4700 -RA OVC008 10/09 Q1012
Loading
Personal Weather Stations






























Interactive Weather Map New forecast layout! Learn more

10-Day Weather Forecast

Advertisements
Track Severe Weather on mobile